Time;durP1;ratioP1;P1;durP2;ratioP2;P2;SDS_P1;SDS_P2;PMS_P1;PMS_P2;Temp;Humidity;BMP_temperature;BMP_pressure;BME280_temperature;BME280_humidity;BME280_pressure;Samples;Min_cycle;Max_cycle;Signal;HPM_P1;HPM_P2
2022/04/09 00:00:15;;;;;;;6.03;1.83;;;;;;;;;;5077002;28;20051;-86
2022/04/09 00:02:40;;;;;;;6.25;1.98;;;;;;;;;;5095270;28;20024;-86
2022/04/09 00:05:07;;;;;;;5.75;1.60;;;;;;;;;;5095120;28;20081;-86
2022/04/09 00:07:33;;;;;;;3.63;1.80;;;;;;;;;;5060937;28;20024;-86
2022/04/09 00:09:58;;;;;;;4.05;1.52;;;;;;;;;;5095455;28;20020;-86
2022/04/09 00:12:24;;;;;;;4.25;1.60;;;;;;;;;;5060394;28;20054;-86
2022/04/09 00:14:49;;;;;;;3.50;1.90;;;;;;;;;;5076836;28;20115;-86
2022/04/09 00:17:14;;;;;;;4.80;1.65;;;;;;;;;;5076866;28;20031;-86
2022/04/09 00:19:41;;;;;;;5.57;1.70;;;;;;;;;;5076921;28;20028;-86
2022/04/09 00:22:06;;;;;;;3.75;1.52;;;;;;;;;;5073342;28;20048;-85
2022/04/09 00:24:31;;;;;;;3.22;1.48;;;;;;;;;;5074414;28;20395;-86
2022/04/09 00:26:57;;;;;;;13.25;1.50;;;;;;;;;;5073731;28;20028;-85
2022/04/09 00:29:22;;;;;;;3.00;1.75;;;;;;;;;;5056538;28;20031;-86
2022/04/09 00:31:48;;;;;;;4.82;1.45;;;;;;;;;;5075296;28;20094;-87
2022/04/09 00:34:13;;;;;;;4.30;1.48;;;;;;;;;;5073448;28;20035;-87
2022/04/09 00:36:39;;;;;;;4.30;1.65;;;;;;;;;;5074659;28;20028;-87
2022/04/09 00:39:04;;;;;;;5.18;1.63;;;;;;;;;;5073185;28;20429;-87
2022/04/09 00:41:30;;;;;;;2.70;1.25;;;;;;;;;;5074214;28;20543;-87
2022/04/09 00:43:55;;;;;;;3.90;1.35;;;;;;;;;;5072903;28;20060;-87
2022/04/09 00:46:21;;;;;;;2.70;1.58;;;;;;;;;;5075232;28;20025;-87
2022/04/09 00:48:46;;;;;;;6.85;1.80;;;;;;;;;;5076408;28;20119;-87
2022/04/09 00:51:12;;;;;;;4.50;1.60;;;;;;;;;;5076039;28;20035;-87
2022/04/09 00:53:41;;;;;;;5.38;1.63;;;;;;;;;;5058185;28;20047;-87
2022/04/09 00:56:20;;;;;;;4.22;1.38;;;;;;;;;;5074206;28;20030;-87
2022/04/09 00:58:56;;;;;;;2.63;1.30;;;;;;;;;;5075003;28;20471;-87
2022/04/09 01:01:23;;;;;;;5.20;1.40;;;;;;;;;;5073309;28;20029;-88
2022/04/09 01:03:52;;;;;;;2.88;1.27;;;;;;;;;;5039401;28;20056;-88
2022/04/09 01:06:18;;;;;;;2.63;1.30;;;;;;;;;;5072482;28;20024;-87
2022/04/09 01:08:43;;;;;;;5.82;1.48;;;;;;;;;;5056023;28;20498;-87
2022/04/09 01:11:11;;;;;;;2.55;1.13;;;;;;;;;;5072331;28;20093;-87
2022/04/09 01:13:36;;;;;;;2.97;1.05;;;;;;;;;;5072355;28;20111;-85
2022/04/09 01:16:02;;;;;;;2.30;1.20;;;;;;;;;;5073985;28;20067;-85
2022/04/09 01:18:29;;;;;;;5.05;1.27;;;;;;;;;;5072372;28;20032;-85
2022/04/09 01:20:58;;;;;;;4.20;1.25;;;;;;;;;;5073435;28;20066;-85
2022/04/09 01:23:25;;;;;;;4.00;1.30;;;;;;;;;;5055391;28;20059;-85
2022/04/09 01:25:50;;;;;;;2.85;1.30;;;;;;;;;;5055894;28;20064;-85
2022/04/09 01:28:16;;;;;;;5.07;1.15;;;;;;;;;;5073230;28;20086;-85
2022/04/09 01:30:42;;;;;;;4.63;1.52;;;;;;;;;;5055548;28;20476;-85
2022/04/09 01:33:07;;;;;;;4.63;1.60;;;;;;;;;;5072066;28;20032;-86
2022/04/09 01:35:33;;;;;;;5.30;1.42;;;;;;;;;;5071853;28;20044;-85
2022/04/09 01:37:58;;;;;;;2.90;1.23;;;;;;;;;;5075953;28;20028;-85
2022/04/09 01:40:23;;;;;;;4.78;1.65;;;;;;;;;;5056552;28;20040;-86
2022/04/09 01:42:50;;;;;;;4.78;1.27;;;;;;;;;;5059933;28;20044;-86
2022/04/09 01:45:16;;;;;;;2.60;1.15;;;;;;;;;;5060565;28;20029;-86
2022/04/09 01:47:43;;;;;;;4.18;1.17;;;;;;;;;;5073573;28;20129;-86
2022/04/09 01:50:10;;;;;;;2.40;1.05;;;;;;;;;;5038785;28;20017;-87
2022/04/09 01:52:35;;;;;;;2.35;1.10;;;;;;;;;;5072360;28;20028;-86
2022/04/09 01:55:01;;;;;;;3.90;1.10;;;;;;;;;;5071562;28;20024;-86
2022/04/09 01:57:26;;;;;;;1.42;1.00;;;;;;;;;;5071935;28;20034;-86
2022/04/09 01:59:51;;;;;;;3.15;1.27;;;;;;;;;;5073100;28;20067;-87
2022/04/09 02:02:17;;;;;;;2.38;1.20;;;;;;;;;;5073067;28;20036;-86
2022/04/09 02:04:42;;;;;;;2.60;1.08;;;;;;;;;;5071757;28;20067;-87
2022/04/09 02:07:07;;;;;;;2.35;1.08;;;;;;;;;;5073264;28;20060;-86
2022/04/09 02:09:33;;;;;;;2.75;1.02;;;;;;;;;;5055219;28;20021;-86
2022/04/09 02:11:59;;;;;;;3.92;1.20;;;;;;;;;;5055464;28;20041;-86
2022/04/09 02:14:25;;;;;;;1.83;1.08;;;;;;;;;;5071964;28;20032;-86
2022/04/09 02:16:50;;;;;;;2.38;1.10;;;;;;;;;;5071442;28;20032;-86
2022/04/09 02:19:17;;;;;;;2.90;1.30;;;;;;;;;;5072722;28;20463;-86
2022/04/09 02:21:42;;;;;;;1.83;1.00;;;;;;;;;;5071433;28;20039;-85
2022/04/09 02:24:09;;;;;;;2.97;1.30;;;;;;;;;;5071130;28;20060;-84
2022/04/09 02:26:34;;;;;;;3.45;1.20;;;;;;;;;;5055031;28;20046;-85
2022/04/09 02:29:00;;;;;;;5.22;1.23;;;;;;;;;;5054800;28;20100;-85
2022/04/09 02:31:25;;;;;;;3.22;1.50;;;;;;;;;;5073522;28;20032;-85
2022/04/09 02:33:50;;;;;;;3.75;1.30;;;;;;;;;;5073072;28;20489;-84
2022/04/09 02:36:16;;;;;;;1.70;0.93;;;;;;;;;;5073234;28;20029;-84
2022/04/09 02:38:44;;;;;;;2.28;1.10;;;;;;;;;;5073057;28;20025;-84
2022/04/09 02:41:10;;;;;;;3.90;1.33;;;;;;;;;;5072588;28;20040;-85
2022/04/09 02:43:36;;;;;;;2.80;0.93;;;;;;;;;;5054819;28;20032;-84
2022/04/09 02:46:02;;;;;;;2.15;1.00;;;;;;;;;;5072476;28;20483;-85
2022/04/09 02:48:27;;;;;;;2.75;0.90;;;;;;;;;;5057273;28;20056;-85
2022/04/09 02:50:53;;;;;;;4.03;1.60;;;;;;;;;;5075115;28;20034;-84
2022/04/09 02:53:19;;;;;;;3.35;1.10;;;;;;;;;;5058690;28;20028;-85
2022/04/09 02:55:45;;;;;;;3.17;1.33;;;;;;;;;;5074846;28;20065;-84
2022/04/09 02:58:10;;;;;;;3.00;1.02;;;;;;;;;;5075233;28;20032;-84
2022/04/09 03:00:35;;;;;;;1.67;1.00;;;;;;;;;;5058141;28;20036;-84
2022/04/09 03:03:01;;;;;;;1.55;0.93;;;;;;;;;;5075091;28;20025;-85
2022/04/09 03:05:26;;;;;;;3.63;1.38;;;;;;;;;;5058201;28;20028;-84
2022/04/09 03:07:52;;;;;;;2.92;0.85;;;;;;;;;;5041677;28;20032;-85
2022/04/09 03:10:17;;;;;;;1.65;1.00;;;;;;;;;;5076598;28;20463;-85
2022/04/09 03:12:44;;;;;;;2.55;1.40;;;;;;;;;;5075257;28;20082;-85
2022/04/09 03:15:10;;;;;;;2.03;0.90;;;;;;;;;;5075492;28;20024;-85
2022/04/09 03:17:35;;;;;;;2.72;1.30;;;;;;;;;;5076125;28;20081;-86
2022/04/09 03:20:01;;;;;;;2.42;1.00;;;;;;;;;;5076155;28;20109;-85
2022/04/09 03:22:28;;;;;;;1.63;1.02;;;;;;;;;;5057737;28;20052;-85
2022/04/09 03:24:57;;;;;;;2.05;1.15;;;;;;;;;;5074827;28;20024;-86
2022/04/09 03:27:23;;;;;;;2.78;1.00;;;;;;;;;;5076136;28;20062;-86
2022/04/09 03:29:48;;;;;;;2.97;1.02;;;;;;;;;;5075746;28;20032;-86
2022/04/09 03:32:14;;;;;;;3.13;1.35;;;;;;;;;;5075498;28;20032;-86
2022/04/09 03:34:39;;;;;;;3.75;1.13;;;;;;;;;;5040934;28;20032;-84
2022/04/09 03:37:05;;;;;;;1.83;0.95;;;;;;;;;;5075899;28;20028;-84
2022/04/09 03:39:31;;;;;;;2.53;1.02;;;;;;;;;;5073986;28;20052;-84
2022/04/09 03:41:56;;;;;;;2.75;1.00;;;;;;;;;;5074161;28;20479;-84
2022/04/09 03:44:22;;;;;;;3.28;1.05;;;;;;;;;;5074438;28;20043;-87
2022/04/09 03:46:47;;;;;;;1.90;1.10;;;;;;;;;;5075627;28;20475;-86
2022/04/09 03:49:13;;;;;;;2.15;1.10;;;;;;;;;;5075596;28;20029;-86
2022/04/09 03:51:38;;;;;;;3.97;1.10;;;;;;;;;;5075455;28;20035;-87
2022/04/09 03:54:04;;;;;;;1.85;0.90;;;;;;;;;;5076072;28;20033;-87
2022/04/09 03:56:30;;;;;;;4.85;1.30;;;;;;;;;;5073997;28;20043;-86
2022/04/09 03:58:55;;;;;;;2.28;0.98;;;;;;;;;;5056361;28;20028;-86
2022/04/09 04:01:24;;;;;;;1.88;0.90;;;;;;;;;;5073625;28;20169;-86
2022/04/09 04:03:50;;;;;;;2.45;1.00;;;;;;;;;;5074662;28;20119;-85
2022/04/09 04:06:16;;;;;;;2.40;0.95;;;;;;;;;;5075235;28;20047;-85
2022/04/09 04:08:42;;;;;;;1.65;1.00;;;;;;;;;;5057052;28;20033;-85
2022/04/09 04:11:07;;;;;;;1.23;0.88;;;;;;;;;;5073702;28;20383;-85
2022/04/09 04:13:35;;;;;;;2.90;1.00;;;;;;;;;;5074710;28;20471;-86
2022/04/09 04:16:03;;;;;;;4.32;0.98;;;;;;;;;;5040860;28;20028;-85
2022/04/09 04:18:28;;;;;;;1.67;1.10;;;;;;;;;;5074844;28;20020;-85
2022/04/09 04:20:54;;;;;;;4.53;1.02;;;;;;;;;;5039947;28;20025;-85
2022/04/09 04:23:20;;;;;;;2.22;1.02;;;;;;;;;;5085283;28;20058;-86
2022/04/09 04:25:45;;;;;;;11.75;1.38;;;;;;;;;;5094882;28;20458;-86
2022/04/09 04:28:10;;;;;;;1.60;1.00;;;;;;;;;;5094677;28;20034;-86
2022/04/09 04:30:36;;;;;;;5.35;1.10;;;;;;;;;;5076717;28;20028;-87
2022/04/09 04:33:01;;;;;;;2.33;0.90;;;;;;;;;;5060315;28;20028;-87
2022/04/09 04:35:27;;;;;;;4.25;1.30;;;;;;;;;;5043943;28;20062;-87
2022/04/09 04:37:54;;;;;;;4.07;1.40;;;;;;;;;;5095258;28;20046;-86
2022/04/09 04:40:19;;;;;;;2.63;0.82;;;;;;;;;;5094912;28;20604;-86
2022/04/09 04:42:45;;;;;;;3.75;1.42;;;;;;;;;;5077519;28;20111;-87
2022/04/09 04:45:11;;;;;;;5.03;1.17;;;;;;;;;;5094855;28;20073;-86
2022/04/09 04:47:44;;;;;;;4.93;1.20;;;;;;;;;;5095176;28;20056;-86
2022/04/09 04:50:10;;;;;;;2.30;1.08;;;;;;;;;;5095040;28;20100;-86
2022/04/09 04:52:36;;;;;;;3.05;1.20;;;;;;;;;;5076818;28;20058;-87
2022/04/09 04:55:02;;;;;;;4.03;1.23;;;;;;;;;;5077037;28;20437;-86
2022/04/09 04:57:27;;;;;;;1.80;1.10;;;;;;;;;;5095261;28;20024;-86
2022/04/09 04:59:52;;;;;;;4.20;1.10;;;;;;;;;;5076399;28;20034;-86
2022/04/09 05:02:18;;;;;;;4.40;0.90;;;;;;;;;;5094739;28;20032;-85
2022/04/09 05:04:43;;;;;;;2.38;0.90;;;;;;;;;;5076276;28;20085;-85
2022/04/09 05:07:08;;;;;;;2.25;1.00;;;;;;;;;;5094812;28;20035;-85
2022/04/09 05:09:35;;;;;;;2.60;1.00;;;;;;;;;;5059909;28;20085;-86
2022/04/09 05:12:01;;;;;;;5.35;1.30;;;;;;;;;;5076341;28;20039;-85
2022/04/09 05:14:26;;;;;;;8.68;1.65;;;;;;;;;;5076531;28;20028;-84
2022/04/09 05:16:52;;;;;;;4.78;1.40;;;;;;;;;;5076409;28;20028;-85
2022/04/09 05:19:17;;;;;;;16.02;2.33;;;;;;;;;;5094726;28;20032;-84
2022/04/09 05:21:45;;;;;;;5.68;1.52;;;;;;;;;;5076480;28;20065;-84
2022/04/09 05:24:10;;;;;;;2.88;1.10;;;;;;;;;;5076411;28;20504;-84
2022/04/09 05:26:36;;;;;;;3.80;1.27;;;;;;;;;;5076086;28;20104;-86
2022/04/09 05:29:01;;;;;;;6.32;1.17;;;;;;;;;;5042776;28;20024;-86
2022/04/09 05:31:29;;;;;;;2.55;1.25;;;;;;;;;;5076701;28;20027;-85
2022/04/09 05:33:55;;;;;;;1.45;0.90;;;;;;;;;;5059920;28;20036;-86
2022/04/09 05:36:21;;;;;;;2.20;0.93;;;;;;;;;;5059384;28;20130;-84
2022/04/09 05:38:46;;;;;;;3.97;1.23;;;;;;;;;;5042469;28;20028;-84
2022/04/09 05:41:11;;;;;;;1.85;0.90;;;;;;;;;;5094329;28;20047;-84
2022/04/09 05:43:37;;;;;;;6.47;1.55;;;;;;;;;;5094983;28;20030;-84
2022/04/09 05:46:03;;;;;;;6.15;1.27;;;;;;;;;;5059447;28;20020;-85
2022/04/09 05:48:28;;;;;;;1.65;0.80;;;;;;;;;;5095055;28;20364;-84
2022/04/09 05:50:53;;;;;;;2.15;1.17;;;;;;;;;;5060143;28;20027;-84
2022/04/09 05:53:19;;;;;;;2.60;1.02;;;;;;;;;;5060050;28;20032;-86
2022/04/09 05:55:44;;;;;;;3.80;0.98;;;;;;;;;;5076888;28;20600;-85
2022/04/09 05:58:10;;;;;;;3.40;1.30;;;;;;;;;;5076994;28;20024;-85
2022/04/09 06:00:36;;;;;;;6.32;1.15;;;;;;;;;;5096617;28;20032;-84
2022/04/09 06:03:06;;;;;;;3.30;1.10;;;;;;;;;;5098738;28;20014;-84
2022/04/09 06:05:31;;;;;;;3.70;1.15;;;;;;;;;;5082323;28;20036;-84
2022/04/09 06:07:57;;;;;;;7.70;1.50;;;;;;;;;;5076443;28;20024;-85
2022/04/09 06:10:22;;;;;;;4.40;1.20;;;;;;;;;;5059288;28;20035;-83
2022/04/09 06:12:47;;;;;;;4.40;1.33;;;;;;;;;;5077641;28;20025;-84
2022/04/09 06:15:13;;;;;;;3.45;1.08;;;;;;;;;;5096727;28;20028;-84
2022/04/09 06:17:39;;;;;;;4.45;1.25;;;;;;;;;;5077196;28;20428;-84
2022/04/09 06:20:06;;;;;;;5.28;1.20;;;;;;;;;;5076711;28;20082;-82
2022/04/09 06:22:34;;;;;;;2.15;1.20;;;;;;;;;;5062369;28;20107;-86
2022/04/09 06:25:07;;;;;;;9.13;1.13;;;;;;;;;;5066875;28;20048;-86
2022/04/09 06:27:35;;;;;;;3.78;1.33;;;;;;;;;;5081524;28;20063;-87
2022/04/09 06:30:05;;;;;;;8.30;2.10;;;;;;;;;;5082072;28;20051;-86
2022/04/09 06:32:31;;;;;;;16.38;3.35;;;;;;;;;;5084756;28;20032;-87
2022/04/09 06:34:57;;;;;;;13.70;3.67;;;;;;;;;;5057111;28;20024;-88
2022/04/09 06:37:22;;;;;;;14.15;3.03;;;;;;;;;;5101951;28;20039;-82
2022/04/09 06:39:48;;;;;;;14.43;2.95;;;;;;;;;;5080506;28;20050;-83
2022/04/09 06:42:13;;;;;;;14.65;2.55;;;;;;;;;;5098340;28;20430;-87
2022/04/09 06:44:38;;;;;;;14.52;2.65;;;;;;;;;;5080372;28;20028;-84
2022/04/09 06:47:08;;;;;;;11.23;2.22;;;;;;;;;;5098574;28;20490;-83
2022/04/09 06:49:35;;;;;;;9.45;2.20;;;;;;;;;;5099502;28;20047;-84
2022/04/09 06:52:01;;;;;;;13.52;2.25;;;;;;;;;;5079906;28;20035;-85
2022/04/09 06:54:26;;;;;;;10.55;2.40;;;;;;;;;;5099275;28;20036;-83
2022/04/09 06:56:52;;;;;;;9.15;1.75;;;;;;;;;;5080663;28;20043;-83
2022/04/09 06:59:17;;;;;;;11.50;2.53;;;;;;;;;;5063928;28;20032;-83
2022/04/09 07:01:42;;;;;;;7.85;2.10;;;;;;;;;;5091346;28;20086;-85
2022/04/09 07:04:12;;;;;;;12.25;2.25;;;;;;;;;;5061781;28;20463;-83
2022/04/09 07:06:38;;;;;;;8.68;2.05;;;;;;;;;;5097442;28;20040;-84
2022/04/09 07:09:04;;;;;;;8.00;2.17;;;;;;;;;;5066776;28;20031;-83
2022/04/09 07:11:29;;;;;;;6.03;1.98;;;;;;;;;;5081535;28;20056;-84
2022/04/09 07:13:55;;;;;;;7.70;1.80;;;;;;;;;;5045963;28;20053;-83
2022/04/09 07:16:20;;;;;;;5.90;1.70;;;;;;;;;;5045820;28;20032;-84
2022/04/09 07:18:46;;;;;;;4.00;1.65;;;;;;;;;;5078987;28;20474;-84
2022/04/09 07:21:11;;;;;;;3.63;1.40;;;;;;;;;;5078427;28;20520;-87
2022/04/09 07:23:37;;;;;;;8.43;1.65;;;;;;;;;;5058407;28;20134;-85
2022/04/09 07:26:02;;;;;;;8.00;2.10;;;;;;;;;;5076837;28;20063;-86
2022/04/09 07:28:27;;;;;;;5.97;2.03;;;;;;;;;;5076978;28;20037;-84
2022/04/09 07:30:53;;;;;;;6.18;1.90;;;;;;;;;;5077047;28;20111;-82
2022/04/09 07:33:18;;;;;;;5.40;1.83;;;;;;;;;;5077006;28;20423;-86
2022/04/09 07:35:44;;;;;;;5.63;1.67;;;;;;;;;;5076056;28;20028;-86
2022/04/09 07:38:13;;;;;;;2.92;1.50;;;;;;;;;;5060725;28;20037;-86
2022/04/09 07:40:38;;;;;;;8.10;1.52;;;;;;;;;;5076140;28;20028;-86
2022/04/09 07:43:03;;;;;;;3.35;1.30;;;;;;;;;;5059383;28;20493;-86
2022/04/09 07:45:29;;;;;;;4.30;1.50;;;;;;;;;;5059649;28;20032;-85
2022/04/09 07:47:56;;;;;;;4.43;1.35;;;;;;;;;;5077190;28;20020;-84
2022/04/09 07:50:22;;;;;;;11.88;1.63;;;;;;;;;;5076286;28;20028;-84
2022/04/09 07:52:47;;;;;;;10.25;2.47;;;;;;;;;;5060023;28;20028;-85
2022/04/09 07:55:16;;;;;;;8.30;2.30;;;;;;;;;;5076367;28;20033;-84
2022/04/09 07:57:43;;;;;;;7.57;1.88;;;;;;;;;;5075447;28;20103;-85
2022/04/09 08:00:09;;;;;;;7.50;2.05;;;;;;;;;;5075521;28;20033;-85
2022/04/09 08:02:35;;;;;;;9.63;3.20;;;;;;;;;;5059283;28;20028;-85
2022/04/09 08:05:01;;;;;;;10.45;2.38;;;;;;;;;;5079174;28;20395;-85
2022/04/09 08:07:27;;;;;;;5.90;1.73;;;;;;;;;;5058207;28;20020;-86
2022/04/09 08:09:52;;;;;;;4.68;1.98;;;;;;;;;;5057815;28;20082;-86
2022/04/09 08:12:18;;;;;;;4.90;2.22;;;;;;;;;;5057640;28;20052;-86
2022/04/09 08:14:43;;;;;;;7.13;2.03;;;;;;;;;;5074066;28;20032;-86
2022/04/09 08:17:09;;;;;;;10.98;1.70;;;;;;;;;;5057278;28;20536;-85
2022/04/09 08:19:35;;;;;;;4.97;1.70;;;;;;;;;;5074205;28;20024;-86
2022/04/09 08:22:05;;;;;;;8.20;1.90;;;;;;;;;;5073904;28;20028;-85
2022/04/09 08:24:31;;;;;;;5.82;1.90;;;;;;;;;;5057375;28;20048;-85
2022/04/09 08:26:57;;;;;;;7.18;2.17;;;;;;;;;;5073823;28;20498;-85
2022/04/09 08:29:24;;;;;;;3.92;1.60;;;;;;;;;;5073906;28;20037;-86
2022/04/09 08:31:50;;;;;;;4.30;1.73;;;;;;;;;;5057174;28;20085;-84
2022/04/09 08:34:17;;;;;;;4.15;1.60;;;;;;;;;;5074071;28;20107;-85
2022/04/09 08:36:43;;;;;;;6.80;1.52;;;;;;;;;;5056978;28;20036;-85
2022/04/09 08:39:09;;;;;;;5.28;1.67;;;;;;;;;;5073577;28;20422;-83
2022/04/09 08:41:36;;;;;;;3.03;1.30;;;;;;;;;;5057041;28;20487;-84
2022/04/09 08:44:02;;;;;;;5.05;1.48;;;;;;;;;;5056850;28;20119;-84
2022/04/09 08:46:28;;;;;;;3.92;1.73;;;;;;;;;;5056465;28;20025;-85
2022/04/09 08:48:55;;;;;;;7.75;1.58;;;;;;;;;;5056609;28;20024;-84
2022/04/09 08:51:21;;;;;;;2.90;1.33;;;;;;;;;;5073399;28;20046;-85
2022/04/09 08:53:47;;;;;;;6.93;1.70;;;;;;;;;;5073639;28;20046;-85
2022/04/09 08:56:15;;;;;;;6.95;1.77;;;;;;;;;;5073684;28;20037;-84
2022/04/09 08:58:40;;;;;;;4.32;2.00;;;;;;;;;;5074629;28;20388;-83
2022/04/09 09:01:06;;;;;;;3.70;2.00;;;;;;;;;;5056976;28;20036;-84
2022/04/09 09:03:35;;;;;;;7.50;1.80;;;;;;;;;;5057372;28;20475;-84
2022/04/09 09:06:01;;;;;;;2.92;1.70;;;;;;;;;;5074697;28;20054;-83
2022/04/09 09:08:44;;;;;;;5.00;1.65;;;;;;;;;;5056170;28;20024;-83
2022/04/09 09:11:10;;;;;;;6.43;2.03;;;;;;;;;;5074458;28;20036;-83
2022/04/09 09:13:49;;;;;;;6.32;1.88;;;;;;;;;;5074180;28;20029;-86
2022/04/09 09:16:28;;;;;;;3.70;1.88;;;;;;;;;;5075557;28;20112;-82
2022/04/09 09:19:04;;;;;;;7.30;1.90;;;;;;;;;;5073326;28;20027;-84
2022/04/09 09:21:29;;;;;;;5.60;1.67;;;;;;;;;;5074144;28;20078;-84
2022/04/09 09:24:07;;;;;;;3.65;1.67;;;;;;;;;;5072679;28;20056;-86
2022/04/09 09:26:37;;;;;;;4.35;1.58;;;;;;;;;;5074641;28;20077;-84
2022/04/09 09:29:02;;;;;;;6.97;1.60;;;;;;;;;;5076116;28;20017;-84
2022/04/09 09:31:44;;;;;;;6.55;1.92;;;;;;;;;;5075530;28;20032;-84
2022/04/09 09:34:14;;;;;;;3.65;1.60;;;;;;;;;;5073792;28;20036;-81
2022/04/09 09:36:42;;;;;;;6.22;1.80;;;;;;;;;;5056241;28;20042;-81
2022/04/09 09:39:08;;;;;;;8.00;1.58;;;;;;;;;;5073088;28;20056;-82
2022/04/09 09:41:35;;;;;;;3.95;1.73;;;;;;;;;;5074129;28;20031;-83
2022/04/09 09:44:04;;;;;;;5.07;1.80;;;;;;;;;;5075061;28;20085;-84
2022/04/09 09:46:30;;;;;;;3.97;1.58;;;;;;;;;;5074974;28;20082;-84
2022/04/09 09:48:55;;;;;;;5.25;1.33;;;;;;;;;;5076285;28;20020;-84
2022/04/09 09:51:23;;;;;;;5.63;1.90;;;;;;;;;;5057083;28;20032;-83
2022/04/09 09:53:48;;;;;;;4.57;1.30;;;;;;;;;;5074512;28;20020;-83
2022/04/09 09:56:14;;;;;;;3.60;1.42;;;;;;;;;;5079973;28;20536;-87
2022/04/09 09:58:40;;;;;;;7.82;1.80;;;;;;;;;;5075592;28;20446;-86
2022/04/09 10:01:07;;;;;;;7.43;1.52;;;;;;;;;;5074348;28;20028;-83
2022/04/09 10:03:33;;;;;;;6.70;1.50;;;;;;;;;;5075359;28;20021;-85
2022/04/09 10:05:59;;;;;;;5.95;1.63;;;;;;;;;;5073070;28;20032;-85
2022/04/09 10:08:24;;;;;;;5.30;2.03;;;;;;;;;;5072690;28;20050;-85
2022/04/09 10:10:51;;;;;;;3.47;1.40;;;;;;;;;;5073919;28;20039;-86
2022/04/09 10:13:20;;;;;;;1.45;1.20;;;;;;;;;;5072908;28;20031;-86
2022/04/09 10:15:49;;;;;;;3.45;1.30;;;;;;;;;;5072846;28;20017;-85
2022/04/09 10:18:19;;;;;;;4.40;1.60;;;;;;;;;;5056114;28;20024;-85
2022/04/09 10:20:45;;;;;;;2.55;1.30;;;;;;;;;;5040038;28;20404;-87
2022/04/09 10:23:13;;;;;;;5.13;1.42;;;;;;;;;;5074410;28;20480;-86
2022/04/09 10:25:41;;;;;;;1.80;1.02;;;;;;;;;;5075899;28;20545;-85
2022/04/09 10:28:08;;;;;;;3.40;1.30;;;;;;;;;;5078011;28;20029;-85
2022/04/09 10:30:41;;;;;;;3.35;1.40;;;;;;;;;;5077732;28;20025;-85
2022/04/09 10:33:23;;;;;;;2.80;1.17;;;;;;;;;;5060583;28;20028;-86
2022/04/09 10:35:49;;;;;;;2.30;0.95;;;;;;;;;;5076341;28;20027;-86
2022/04/09 10:38:16;;;;;;;3.08;1.33;;;;;;;;;;5056266;28;20106;-84
2022/04/09 10:40:45;;;;;;;3.28;1.33;;;;;;;;;;5073149;28;20029;-86
2022/04/09 10:43:37;;;;;;;1.65;1.02;;;;;;;;;;5073342;28;20037;-85
2022/04/09 10:46:02;;;;;;;3.22;1.15;;;;;;;;;;5073394;28;20025;-85
2022/04/09 10:48:35;;;;;;;2.88;1.02;;;;;;;;;;5072995;28;20021;-85
2022/04/09 10:51:22;;;;;;;2.67;1.20;;;;;;;;;;5071890;28;20032;-84
2022/04/09 10:53:49;;;;;;;1.77;1.10;;;;;;;;;;5055108;28;20033;-85
2022/04/09 10:56:28;;;;;;;2.75;1.20;;;;;;;;;;5055111;28;20025;-85
2022/04/09 10:59:08;;;;;;;3.45;1.45;;;;;;;;;;5072102;28;20028;-84
2022/04/09 11:01:46;;;;;;;6.85;1.50;;;;;;;;;;5073479;28;20104;-84
2022/04/09 11:04:27;;;;;;;5.22;1.20;;;;;;;;;;5073149;28;20029;-83
2022/04/09 11:07:05;;;;;;;6.22;1.30;;;;;;;;;;5073035;28;20028;-84
2022/04/09 11:09:54;;;;;;;9.23;1.63;;;;;;;;;;5074500;28;20037;-84
2022/04/09 11:12:26;;;;;;;6.10;1.30;;;;;;;;;;5075683;28;20031;-84
2022/04/09 11:15:00;;;;;;;4.63;1.65;;;;;;;;;;5076675;28;20063;-84
2022/04/09 11:17:26;;;;;;;;;;;;;;;;;;5076853;28;20031;-84
2022/04/09 11:19:53;;;;;;;6.15;1.42;;;;;;;;;;5076409;28;19917;-84
2022/04/09 11:22:19;;;;;;;5.03;1.50;;;;;;;;;;5076365;28;20028;-84
2022/04/09 11:24:45;;;;;;;14.00;1.77;;;;;;;;;;5096798;28;20028;-84
2022/04/09 11:27:10;;;;;;;2.90;1.38;;;;;;;;;;5097887;28;20039;-84
2022/04/09 11:29:42;;;;;;;4.32;1.30;;;;;;;;;;5096865;28;20023;-82
2022/04/09 11:32:19;;;;;;;4.57;1.42;;;;;;;;;;5063238;28;20032;-85
2022/04/09 11:34:49;;;;;;;4.22;1.60;;;;;;;;;;5079527;28;20041;-85
2022/04/09 11:37:14;;;;;;;4.53;1.65;;;;;;;;;;5097384;28;20024;-84
2022/04/09 11:39:45;;;;;;;4.95;1.70;;;;;;;;;;5078437;28;20032;-85
2022/04/09 11:42:10;;;;;;;4.15;1.35;;;;;;;;;;5078577;28;20084;-85
2022/04/09 11:44:38;;;;;;;3.22;1.40;;;;;;;;;;5078296;28;20413;-86
2022/04/09 11:47:15;;;;;;;3.78;1.58;;;;;;;;;;5097746;28;20031;-83
2022/04/09 11:49:45;;;;;;;2.50;1.40;;;;;;;;;;5097991;28;20390;-84
2022/04/09 11:52:11;;;;;;;3.45;1.30;;;;;;;;;;5081513;28;20036;-84
2022/04/09 11:54:38;;;;;;;4.88;1.30;;;;;;;;;;5078845;28;20137;-84
2022/04/09 11:57:09;;;;;;;3.72;1.38;;;;;;;;;;5061386;28;20030;-83
2022/04/09 11:59:35;;;;;;;4.32;1.50;;;;;;;;;;5096224;28;20085;-84
2022/04/09 12:02:00;;;;;;;3.35;1.27;;;;;;;;;;5098871;28;20421;-84
2022/04/09 12:04:34;;;;;;;3.83;1.25;;;;;;;;;;5096532;28;20546;-84
2022/04/09 12:07:02;;;;;;;2.58;0.95;;;;;;;;;;5079357;28;20535;-85
2022/04/09 12:09:27;;;;;;;3.53;1.10;;;;;;;;;;5098704;28;20482;-84
2022/04/09 12:11:53;;;;;;;2.03;1.10;;;;;;;;;;5080490;28;20031;-84
2022/04/09 12:14:20;;;;;;;2.78;1.05;;;;;;;;;;5097675;28;20023;-84
2022/04/09 12:16:47;;;;;;;2.28;1.20;;;;;;;;;;5080659;28;20098;-84
2022/04/09 12:19:13;;;;;;;4.63;1.27;;;;;;;;;;5097925;28;20101;-84
2022/04/09 12:21:39;;;;;;;5.03;1.20;;;;;;;;;;5077854;28;20479;-84
2022/04/09 12:24:09;;;;;;;2.80;1.15;;;;;;;;;;5060932;28;20415;-84
2022/04/09 12:26:36;;;;;;;2.40;1.02;;;;;;;;;;5061712;28;20040;-85
2022/04/09 12:29:08;;;;;;;2.63;1.17;;;;;;;;;;5095886;28;20490;-84
2022/04/09 12:31:35;;;;;;;2.38;1.02;;;;;;;;;;5095974;28;20098;-84
2022/04/09 12:34:01;;;;;;;2.05;1.08;;;;;;;;;;5080709;28;20020;-84
2022/04/09 12:36:27;;;;;;;2.88;1.10;;;;;;;;;;5098292;28;20054;-84
2022/04/09 12:38:52;;;;;;;2.35;0.77;;;;;;;;;;5079263;28;20032;-86
2022/04/09 12:41:17;;;;;;;2.38;1.08;;;;;;;;;;5081645;28;20028;-86
2022/04/09 12:43:43;;;;;;;1.50;0.90;;;;;;;;;;5064997;28;20028;-84
2022/04/09 12:46:15;;;;;;;3.10;1.55;;;;;;;;;;5079396;28;20077;-84
2022/04/09 12:48:49;;;;;;;1.90;1.00;;;;;;;;;;5096210;28;20043;-84
2022/04/09 12:51:19;;;;;;;3.10;1.17;;;;;;;;;;5096388;28;20035;-83
2022/04/09 12:53:45;;;;;;;2.03;1.20;;;;;;;;;;5079017;28;20031;-83
2022/04/09 12:56:12;;;;;;;2.05;1.02;;;;;;;;;;5062003;28;20111;-84
2022/04/09 12:58:38;;;;;;;2.13;0.80;;;;;;;;;;5077510;28;20107;-84
2022/04/09 13:01:06;;;;;;;1.95;1.02;;;;;;;;;;5095238;28;20115;-83
2022/04/09 13:03:32;;;;;;;1.45;1.10;;;;;;;;;;5079446;28;20107;-82
2022/04/09 13:05:58;;;;;;;2.50;0.95;;;;;;;;;;5063279;28;20052;-84
2022/04/09 13:08:23;;;;;;;2.55;1.10;;;;;;;;;;5078417;28;20024;-83
2022/04/09 13:10:52;;;;;;;5.60;1.63;;;;;;;;;;5070908;28;20241;-80
2022/04/09 13:13:19;;;;;;;9.27;1.10;;;;;;;;;;5087593;28;20024;-80
2022/04/09 13:15:45;;;;;;;3.88;1.33;;;;;;;;;;5074797;28;20032;-82
2022/04/09 13:18:11;;;;;;;3.08;1.15;;;;;;;;;;5058038;28;20074;-84
2022/04/09 13:20:36;;;;;;;4.72;1.08;;;;;;;;;;5061063;28;20016;-85
2022/04/09 13:23:05;;;;;;;2.50;1.00;;;;;;;;;;5079048;28;20063;-84
2022/04/09 13:25:30;;;;;;;7.88;1.23;;;;;;;;;;5058946;28;20134;-82
2022/04/09 13:27:57;;;;;;;3.97;1.40;;;;;;;;;;5080916;28;20398;-82
2022/04/09 13:30:26;;;;;;;3.55;0.98;;;;;;;;;;5076546;28;20052;-81
2022/04/09 13:32:54;;;;;;;1.98;1.10;;;;;;;;;;5093989;28;20097;-82
2022/04/09 13:35:23;;;;;;;4.78;1.00;;;;;;;;;;5058693;28;20415;-83
2022/04/09 13:37:49;;;;;;;3.97;1.02;;;;;;;;;;5059670;28;20043;-82
2022/04/09 13:40:14;;;;;;;3.58;1.17;;;;;;;;;;5093448;28;20028;-84
2022/04/09 13:42:41;;;;;;;2.30;1.17;;;;;;;;;;5095478;28;20907;-82
2022/04/09 13:45:08;;;;;;;22.33;1.30;;;;;;;;;;5076034;28;20043;-84
2022/04/09 13:47:33;;;;;;;2.15;0.90;;;;;;;;;;5094392;28;20020;-83
2022/04/09 13:49:59;;;;;;;3.70;1.17;;;;;;;;;;5100816;28;20093;-83
2022/04/09 13:52:28;;;;;;;2.28;1.20;;;;;;;;;;5097664;28;20116;-84
2022/04/09 13:54:53;;;;;;;2.28;0.95;;;;;;;;;;5079992;28;20142;-84
2022/04/09 13:57:18;;;;;;;2.50;1.15;;;;;;;;;;5091533;28;20099;-84
2022/04/09 13:59:44;;;;;;;2.33;1.00;;;;;;;;;;5073451;28;20496;-84
2022/04/09 14:02:10;;;;;;;2.92;0.95;;;;;;;;;;5092358;28;20039;-85
2022/04/09 14:04:35;;;;;;;4.22;1.33;;;;;;;;;;5092796;28;20039;-84
2022/04/09 14:07:01;;;;;;;5.00;1.38;;;;;;;;;;5074731;28;20545;-83
2022/04/09 14:09:26;;;;;;;9.07;1.30;;;;;;;;;;5092223;28;20055;-82
2022/04/09 14:11:52;;;;;;;5.50;1.50;;;;;;;;;;5091713;28;20060;-82
2022/04/09 14:14:17;;;;;;;4.07;1.05;;;;;;;;;;5091898;28;20114;-84
2022/04/09 14:16:43;;;;;;;13.75;1.55;;;;;;;;;;5056321;28;20025;-81
2022/04/09 14:19:10;;;;;;;10.63;1.30;;;;;;;;;;5074090;28;20079;-83
2022/04/09 14:21:36;;;;;;;8.82;1.40;;;;;;;;;;5074422;28;20054;-81
2022/04/09 14:24:01;;;;;;;9.45;1.10;;;;;;;;;;5092326;28;20074;-82
2022/04/09 14:26:29;;;;;;;6.80;1.02;;;;;;;;;;5093821;28;20024;-84
2022/04/09 14:28:57;;;;;;;14.63;1.20;;;;;;;;;;5091059;28;20518;-81
2022/04/09 14:31:22;;;;;;;5.40;1.30;;;;;;;;;;5074929;28;20028;-81
2022/04/09 14:33:49;;;;;;;3.35;1.30;;;;;;;;;;5074921;28;20368;-81
2022/04/09 14:36:15;;;;;;;6.57;1.23;;;;;;;;;;5091871;28;20031;-81
2022/04/09 14:38:40;;;;;;;2.17;1.08;;;;;;;;;;5091532;28;20043;-83
2022/04/09 14:41:06;;;;;;;6.35;1.52;;;;;;;;;;5087259;28;20491;-83